Time;durP1;ratioP1;P1;durP2;ratioP2;P2;SDS_P1;SDS_P2;PMS_P1;PMS_P2;Temp;Humidity;BMP_temperature;BMP_pressure;BME280_temperature;BME280_humidity;BME280_pressure;Samples;Min_cycle;Max_cycle;Signal;HPM_P1;HPM_P2
2020/12/22 00:00:40;;;;;;;;;;;;;;;-4.18;92.54;102611.72;1874799;75;20126;-34
2020/12/22 00:03:07;;;;;;;;;;;;;;;-4.18;92.42;102609.54;1867743;77;20154;-35
2020/12/22 00:05:35;;;;;;;;;;;;;;;-4.19;92.33;102614.16;1866854;77;20182;-36
2020/12/22 00:08:11;;;;;;;;;;;;;;;-4.20;92.22;102613.69;1867191;77;20459;-36
2020/12/22 00:10:38;;;;;;;;;;;;;;;-4.22;92.11;102602.43;1867087;77;20455;-36
2020/12/22 00:13:06;;;;;;;;;;;;;;;-4.24;91.95;102604.87;1867208;77;20225;-35
2020/12/22 00:15:35;;;;;;;;;;;;;;;-4.25;91.81;102597.06;1866902;77;20475;-36
2020/12/22 00:18:05;;;;;;;;;;;;;;;-4.28;91.69;102596.86;1866758;77;20232;-36
2020/12/22 00:20:32;;;;;;;;;;;;;;;-4.32;91.53;102598.29;1867881;75;20174;-37
2020/12/22 00:23:00;;;;;;;;;;;;;;;-4.37;91.38;102593.23;1888666;75;20156;-35
2020/12/22 00:25:27;;;;;;;;;;;;;;;-4.41;91.26;102588.67;1901035;75;20287;-34
2020/12/22 00:27:55;;;;;;;;;;;;;;;-4.46;91.21;102592.53;1830723;77;20150;-36
2020/12/22 00:30:23;;;;;;;;;;;;;;;-4.50;91.13;102588.88;1832659;77;20150;-36
2020/12/22 00:32:50;;;;;;;;;;;;;;;-4.53;91.11;102600.57;1863310;77;20138;-36
2020/12/22 00:35:18;;;;;;;;;;;;;;;-4.58;91.05;102588.69;1863167;77;20170;-36
2020/12/22 00:37:46;;;;;;;;;;;;;;;-4.62;90.98;102600.77;1863676;77;20149;-34
2020/12/22 00:40:14;;;;;;;;;;;;;;;-4.67;90.97;102595.70;1863376;77;20403;-36
2020/12/22 00:42:44;;;;;;;;;;;;;;;-4.69;90.93;102604.02;1863239;77;20146;-36
2020/12/22 00:45:13;;;;;;;;;;;;;;;-4.73;90.90;102600.36;1863361;77;20127;-37
2020/12/22 00:47:40;;;;;;;;;;;;;;;-4.76;90.87;102587.33;1863144;77;20150;-34
2020/12/22 00:50:08;;;;;;;;;;;;;;;-4.80;90.80;102582.77;1863089;77;20515;-36
2020/12/22 00:52:36;;;;;;;;;;;;;;;-4.84;90.76;102588.41;1863240;77;20139;-35
2020/12/22 00:55:04;;;;;;;;;;;;;;;-4.88;90.68;102582.58;1863414;77;20126;-35
2020/12/22 00:57:32;;;;;;;;;;;;;;;-4.92;90.60;102588.21;1863265;77;20174;-36
2020/12/22 01:00:05;;;;;;;;;;;;;;;-4.96;90.52;102590.05;1862854;77;20194;-35
2020/12/22 01:02:34;;;;;;;;;;;;;;;-5.00;90.45;102595.72;1861745;77;20293;-36
2020/12/22 01:05:02;;;;;;;;;;;;;;;-5.04;90.31;102592.02;1863259;77;20480;-36
2020/12/22 01:07:29;;;;;;;;;;;;;;;-5.08;90.20;102587.84;1863097;77;20138;-36
2020/12/22 01:09:57;;;;;;;;;;;;;;;-5.11;90.09;102590.15;1863333;77;20189;-36
2020/12/22 01:12:25;;;;;;;;;;;;;;;-5.16;90.06;102587.64;1863274;77;20135;-37
2020/12/22 01:14:53;;;;;;;;;;;;;;;-5.19;90.03;102593.42;1863152;77;20432;-35
2020/12/22 01:17:21;;;;;;;;;;;;;;;-5.21;89.98;102598.80;1863189;77;20289;-36
2020/12/22 01:19:49;;;;;;;;;;;;;;;-5.27;89.91;102597.95;1863055;77;20170;-36
2020/12/22 01:22:17;;;;;;;;;;;;;;;-5.30;89.88;102596.41;1852193;77;20448;-36
2020/12/22 01:24:44;;;;;;;;;;;;;;;-5.33;89.86;102598.75;1829474;78;20339;-36
2020/12/22 01:27:12;;;;;;;;;;;;;;;-5.37;89.76;102597.98;1829262;78;20276;-37
2020/12/22 01:29:39;;;;;;;;;;;;;;;-5.40;89.69;102601.60;1829292;78;20248;-35
2020/12/22 01:32:07;;;;;;;;;;;;;;;-5.44;89.59;102598.28;1829404;78;20200;-35
2020/12/22 01:34:34;;;;;;;;;;;;;;;-5.47;89.49;102599.34;1829379;78;20231;-41
2020/12/22 01:37:04;;;;;;;;;;;;;;;-5.50;89.35;102603.30;1828711;78;20196;-34
2020/12/22 01:39:31;;;;;;;;;;;;;;;-5.53;89.28;102605.64;1829316;78;20272;-36
2020/12/22 01:41:59;;;;;;;;;;;;;;;-5.56;89.20;102603.72;1829219;78;20151;-36
2020/12/22 01:44:27;;;;;;;;;;;;;;;-5.59;89.02;102598.77;1829485;78;20187;-35
2020/12/22 01:46:55;;;;;;;;;;;;;;;-5.65;88.87;102594.97;1829250;78;20123;-35
2020/12/22 01:49:25;;;;;;;;;;;;;;;-5.69;88.71;102604.42;1829497;78;20187;-35
2020/12/22 01:51:54;;;;;;;;;;;;;;;-5.73;88.54;102600.23;1829333;78;20190;-35
2020/12/22 01:54:22;;;;;;;;;;;;;;;-5.77;88.38;102597.81;1829322;78;20147;-36
2020/12/22 01:56:49;;;;;;;;;;;;;;;-5.78;88.32;102600.27;1829506;78;20123;-36
2020/12/22 01:59:17;;;;;;;;;;;;;;;-5.81;88.31;102601.29;1829570;78;20392;-36
2020/12/22 02:01:49;;;;;;;;;;;;;;;-5.82;88.34;102603.33;1829245;78;20182;-36
2020/12/22 02:04:17;;;;;;;;;;;;;;;-5.84;88.45;102600.65;1804013;80;20170;-37
2020/12/22 02:06:45;;;;;;;;;;;;;;;-5.85;88.56;102600.55;1771028;80;20135;-36
2020/12/22 02:09:13;;;;;;;;;;;;;;;-5.88;88.68;102600.33;1803833;80;20135;-34
2020/12/22 02:11:40;;;;;;;;;;;;;;;-5.92;88.79;102599.20;1805485;78;20151;-35
2020/12/22 02:14:10;;;;;;;;;;;;;;;-5.95;88.90;102598.95;1836716;78;20144;-36
2020/12/22 02:16:38;;;;;;;;;;;;;;;-5.98;89.02;102591.06;1836645;78;20505;-36
2020/12/22 02:19:07;;;;;;;;;;;;;;;-6.02;89.12;102589.02;1845859;77;20184;-35
2020/12/22 02:21:35;;;;;;;;;;;;;;;-6.05;89.25;102591.34;1829509;78;20233;-36
2020/12/22 02:26:49;;;;;;;;;;;;;;;-6.09;89.43;102598.22;1929376;74;20221;-37
2020/12/22 02:29:20;;;;;;;;;;;;;;;-6.17;89.49;102592.50;1853738;75;20178;-36
2020/12/22 02:31:48;;;;;;;;;;;;;;;-6.21;89.59;102596.86;1869033;75;20150;-37
2020/12/22 02:34:16;;;;;;;;;;;;;;;-6.24;89.67;102597.91;1868123;77;20386;-35
2020/12/22 02:36:45;;;;;;;;;;;;;;;-6.29;89.72;102590.62;1868272;75;20156;-35
2020/12/22 02:39:12;;;;;;;;;;;;;;;-6.32;89.80;102591.66;1874455;75;20124;-35
2020/12/22 02:41:40;;;;;;;;;;;;;;;-6.34;89.91;102597.02;1903248;75;20132;-36
2020/12/22 02:44:07;;;;;;;;;;;;;;;-6.38;89.99;102589.52;1880789;75;20135;-37
2020/12/22 02:46:36;;;;;;;;;;;;;;;-6.40;90.11;102595.25;1868002;77;20248;-36
2020/12/22 02:49:04;;;;;;;;;;;;;;;-6.43;90.20;102592.05;1868445;75;20170;-37
2020/12/22 02:51:31;;;;;;;;;;;;;;;-6.49;90.27;102587.72;1867965;77;20473;-36
2020/12/22 02:53:59;;;;;;;;;;;;;;;-6.52;90.35;102596.04;1868297;75;20126;-36
2020/12/22 02:56:30;;;;;;;;;;;;;;;-6.57;90.44;102601.53;1868155;77;20277;-34
2020/12/22 02:58:58;;;;;;;;;;;;;;;-6.60;90.54;102591.06;1867906;77;20292;-35
2020/12/22 03:01:25;;;;;;;;;;;;;;;-6.65;90.57;102591.97;1868001;77;20158;-36
2020/12/22 03:03:53;;;;;;;;;;;;;;;-6.71;90.59;102596.57;1867926;77;20185;-34
2020/12/22 03:06:20;;;;;;;;;;;;;;;-6.78;90.57;102597.20;1869843;75;20130;-35
2020/12/22 03:08:49;;;;;;;;;;;;;;;-6.88;90.51;102599.36;1868138;77;20130;-36
2020/12/22 03:11:17;;;;;;;;;;;;;;;-6.97;90.51;102604.60;1868348;75;20154;-36
2020/12/22 03:13:45;;;;;;;;;;;;;;;-7.02;90.48;102604.58;1868052;77;20206;-36
2020/12/22 03:16:14;;;;;;;;;;;;;;;-7.08;90.52;102608.27;1867774;77;20413;-39
2020/12/22 03:18:41;;;;;;;;;;;;;;;-7.15;90.59;102615.77;1852460;75;20175;-34
2020/12/22 03:21:09;;;;;;;;;;;;;;;-7.18;90.67;102601.89;1902827;75;20191;-35
2020/12/22 03:23:37;;;;;;;;;;;;;;;-7.23;90.79;102600.62;1903007;75;20259;-36
2020/12/22 03:26:05;;;;;;;;;;;;;;;-7.29;90.86;102601.89;1902914;75;20390;-36
2020/12/22 03:28:32;;;;;;;;;;;;;;;-7.37;90.89;102598.17;1902990;75;20171;-35
2020/12/22 03:31:00;;;;;;;;;;;;;;;-7.44;90.97;102603.13;1903186;75;20400;-35
2020/12/22 03:33:28;;;;;;;;;;;;;;;-7.49;91.01;102616.23;1890650;75;20144;-36
2020/12/22 03:35:56;;;;;;;;;;;;;;;-7.55;91.11;102620.80;1868035;75;20459;-34
2020/12/22 03:38:23;;;;;;;;;;;;;;;-7.58;91.18;102620.52;1867294;77;20161;-36
2020/12/22 03:40:51;;;;;;;;;;;;;;;-7.60;91.27;102624.58;1867310;77;20222;-36
2020/12/22 03:43:18;;;;;;;;;;;;;;;-7.62;91.33;102634.66;1868444;75;20205;-37
2020/12/22 03:45:46;;;;;;;;;;;;;;;-7.63;91.45;102626.50;1877861;75;20226;-35
2020/12/22 03:48:14;;;;;;;;;;;;;;;-7.63;91.54;102622.67;1849631;75;20136;-35
2020/12/22 03:50:42;;;;;;;;;;;;;;;-7.63;91.60;102622.67;1902445;75;20429;-34
2020/12/22 03:53:09;;;;;;;;;;;;;;;-7.63;91.69;102621.78;1902264;75;20187;-37
2020/12/22 03:55:37;;;;;;;;;;;;;;;-7.70;91.64;102625.07;1897216;75;20180;-37
2020/12/22 03:58:04;;;;;;;;;;;;;;;-7.75;91.63;102628.88;1902524;75;20381;-35
2020/12/22 04:00:32;;;;;;;;;;;;;;;-7.82;91.60;102617.64;1902435;75;20179;-35
2020/12/22 04:02:59;;;;;;;;;;;;;;;-7.85;91.62;102617.73;1902302;75;20136;-36
2020/12/22 04:05:29;;;;;;;;;;;;;;;-7.92;91.58;102627.76;1902073;75;20179;-36
2020/12/22 04:07:56;;;;;;;;;;;;;;;-8.00;91.55;102628.73;1876181;75;20542;-37
2020/12/22 04:10:25;;;;;;;;;;;;;;;-8.09;91.52;102626.29;1867147;77;20227;-35
2020/12/22 04:12:53;;;;;;;;;;;;;;;-8.17;91.56;102629.80;1867534;77;20121;-35
2020/12/22 04:15:21;;;;;;;;;;;;;;;-8.26;91.57;102641.69;1867355;77;20133;-35
2020/12/22 04:17:48;;;;;;;;;;;;;;;-8.30;91.73;102645.13;1867014;77;20235;-36
2020/12/22 04:20:16;;;;;;;;;;;;;;;-8.30;91.84;102638.78;1867366;75;20326;-36
2020/12/22 04:22:44;;;;;;;;;;;;;;;-8.34;91.88;102638.89;1867587;75;20166;-35
2020/12/22 04:25:12;;;;;;;;;;;;;;;-8.37;91.96;102641.52;1891614;75;20366;-36
2020/12/22 04:27:40;;;;;;;;;;;;;;;-8.40;92.08;102634.91;1875249;75;20134;-35
2020/12/22 04:30:07;;;;;;;;;;;;;;;-8.43;92.14;102634.24;1867205;77;20234;-36
2020/12/22 04:32:35;;;;;;;;;;;;;;;-8.44;92.27;102633.72;1867253;77;20238;-36
2020/12/22 04:35:03;;;;;;;;;;;;;;;-8.46;92.33;102631.03;1867363;75;20225;-36
2020/12/22 04:37:30;;;;;;;;;;;;;;;-8.48;92.37;102627.48;1866959;77;20396;-36
2020/12/22 04:39:58;;;;;;;;;;;;;;;-8.52;92.41;102627.94;1867589;75;20226;-37
2020/12/22 04:42:28;;;;;;;;;;;;;;;-8.51;92.51;102632.27;1867700;75;20261;-39
2020/12/22 04:44:56;;;;;;;;;;;;;;;-8.54;92.53;102621.84;1875163;75;20133;-36
2020/12/22 04:47:24;;;;;;;;;;;;;;;-8.57;92.53;102619.02;1879828;75;20190;-37
2020/12/22 04:49:52;;;;;;;;;;;;;;;-8.60;92.53;102621.27;1902250;75;20172;-35
2020/12/22 04:52:22;;;;;;;;;;;;;;;-8.62;92.57;102620.63;1879079;75;20154;-35
2020/12/22 04:54:50;;;;;;;;;;;;;;;-8.67;92.56;102620.59;1867347;75;20457;-39
2020/12/22 04:57:18;;;;;;;;;;;;;;;-8.70;92.60;102621.20;1866948;75;20576;-37
2020/12/22 04:59:46;;;;;;;;;;;;;;;-8.73;92.66;102627.67;1867419;75;20380;-36
2020/12/22 05:02:14;;;;;;;;;;;;;;;-8.75;92.72;102624.98;1874283;75;20174;-37
2020/12/22 05:04:42;;;;;;;;;;;;;;;-8.73;92.82;102633.65;1861763;77;20181;-37
2020/12/22 05:07:09;;;;;;;;;;;;;;;-8.69;92.97;102636.08;1867213;77;20443;-36
2020/12/22 05:09:37;;;;;;;;;;;;;;;-8.69;92.97;102638.62;1867308;77;20262;-34
2020/12/22 05:12:05;;;;;;;;;;;;;;;-8.72;92.99;102644.30;1867008;77;20177;-38
2020/12/22 05:14:33;;;;;;;;;;;;;;;-8.71;93.07;102634.66;1867094;77;20202;-37
2020/12/22 05:17:01;;;;;;;;;;;;;;;-8.73;93.00;102646.36;1867155;77;20233;-46
2020/12/22 05:19:35;;;;;;;;;;;;;;;-8.75;93.03;102648.23;1866668;75;20155;-36
2020/12/22 05:21:58;;;;;;;;;;;;;;;-8.80;93.00;102644.00;1878684;75;20138;-36
2020/12/22 05:24:26;;;;;;;;;;;;;;;-8.87;92.96;102639.11;1866873;75;20201;-37
2020/12/22 05:26:55;;;;;;;;;;;;;;;-8.91;92.96;102640.84;1872801;75;20168;-37
2020/12/22 05:29:22;;;;;;;;;;;;;;;-8.96;93.04;102644.61;1867585;75;20420;-36
2020/12/22 05:31:51;;;;;;;;;;;;;;;-8.99;93.13;102650.70;1847513;75;20219;-35
2020/12/22 05:34:19;;;;;;;;;;;;;;;-9.02;93.25;102649.12;1872917;75;20463;-38
2020/12/22 05:36:48;;;;;;;;;;;;;;;-9.03;93.34;102652.04;1872177;75;20150;-38
2020/12/22 05:39:17;;;;;;;;;;;;;;;-9.02;93.48;102652.94;1878406;75;20120;-38
2020/12/22 05:41:45;;;;;;;;;;;;;;;-9.03;93.56;102660.03;1901669;75;20468;-39
2020/12/22 05:44:14;;;;;;;;;;;;;;;-9.04;93.59;102664.22;1860641;75;20444;-41
2020/12/22 05:46:42;;;;;;;;;;;;;;;-9.06;93.64;102673.37;1871840;75;20233;-38
2020/12/22 05:49:12;;;;;;;;;;;;;;;-9.06;93.70;102673.74;1868607;75;20154;-39
2020/12/22 05:51:47;;;;;;;;;;;;;;;-9.06;93.78;102673.37;1871305;75;20219;-37
2020/12/22 05:54:16;;;;;;;;;;;;;;;-9.05;93.78;102678.04;1871614;75;20172;-36
2020/12/22 05:56:45;;;;;;;;;;;;;;;-9.06;93.76;102673.74;1870516;75;20150;-39
2020/12/22 05:59:20;;;;;;;;;;;;;;;-9.13;93.66;102684.98;1875631;75;20301;-37
2020/12/22 06:01:49;;;;;;;;;;;;;;;-9.18;93.68;102678.92;1835314;75;20164;-38
2020/12/22 06:04:20;;;;;;;;;;;;;;;-9.18;93.74;102677.65;1786509;75;20557;-41
2020/12/22 06:06:48;;;;;;;;;;;;;;;-9.22;93.68;102679.40;1830456;75;20202;-38
2020/12/22 06:09:16;;;;;;;;;;;;;;;-9.29;93.58;102676.66;1850291;75;20332;-38
2020/12/22 06:11:46;;;;;;;;;;;;;;;-9.35;93.54;102671.91;1873606;75;20198;-38
2020/12/22 06:14:18;;;;;;;;;;;;;;;-9.37;93.54;102679.73;1870686;75;20142;-41
2020/12/22 06:16:46;;;;;;;;;;;;;;;-9.39;93.50;102679.09;1879262;75;20166;-37
2020/12/22 06:19:20;;;;;;;;;;;;;;;-9.39;93.47;102685.07;1873291;75;20177;-35
2020/12/22 06:21:54;;;;;;;;;;;;;;;-9.36;93.54;102686.61;1871633;75;20208;-37
2020/12/22 06:27:03;;;;;;;;;;;;;;;-9.25;93.55;102691.42;1893331;74;20195;-37
2020/12/22 06:29:35;;;;;;;;;;;;;;;-9.24;93.54;102687.23;1859682;75;20205;-38
2020/12/22 06:32:23;;;;;;;;;;;;;;;-9.20;93.53;102686.42;1868378;75;20244;-39
2020/12/22 06:34:54;;;;;;;;;;;;;;;-9.18;93.43;102682.36;1871247;75;20174;-39
2020/12/22 06:37:42;;;;;;;;;;;;;;;-9.17;93.30;102684.52;1871317;75;20322;-38
2020/12/22 06:40:10;;;;;;;;;;;;;;;-9.12;93.32;102685.88;1866155;75;20293;-39
2020/12/22 06:42:45;;;;;;;;;;;;;;;-9.05;93.25;102688.20;1870107;75;20561;-38
2020/12/22 06:45:26;;;;;;;;;;;;;;;-9.09;93.05;102678.15;1867824;75;20544;-37
2020/12/22 06:47:56;;;;;;;;;;;;;;;-9.10;92.93;102678.89;1871159;75;20487;-38
2020/12/22 06:50:41;;;;;;;;;;;;;;;-9.12;92.79;102676.98;1866199;75;20297;-46
2020/12/22 06:53:29;;;;;;;;;;;;;;;-9.11;92.71;102674.56;1823734;75;20178;-39
2020/12/22 06:55:57;;;;;;;;;;;;;;;-9.08;92.60;102672.69;1873326;75;20185;-39
2020/12/22 06:58:47;;;;;;;;;;;;;;;-9.05;92.43;102671.69;1868979;75;20195;-39
2020/12/22 07:01:29;;;;;;;;;;;;;;;-9.09;92.13;102679.79;1868881;75;20142;-38
2020/12/22 07:04:19;;;;;;;;;;;;;;;-9.09;92.11;102682.33;1880041;75;20474;-39
2020/12/22 07:06:50;;;;;;;;;;;;;;;-9.02;92.02;102680.88;1869506;75;20130;-40
2020/12/22 07:09:21;;;;;;;;;;;;;;;-9.00;91.84;102677.75;1872624;75;20126;-37
2020/12/22 07:11:49;;;;;;;;;;;;;;;-8.99;91.60;102675.69;1867119;75;20229;-39
2020/12/22 07:14:22;;;;;;;;;;;;;;;-9.00;91.36;102677.75;1837256;75;20192;-38
2020/12/22 07:16:56;;;;;;;;;;;;;;;-8.96;91.36;102673.83;1867413;75;20189;-37
2020/12/22 07:19:34;;;;;;;;;;;;;;;-8.87;91.25;102665.42;1825879;75;20233;-37
2020/12/22 07:22:05;;;;;;;;;;;;;;;-8.77;91.06;102676.04;1829638;75;20203;-38
2020/12/22 07:24:35;;;;;;;;;;;;;;;-8.69;90.83;102680.56;1867236;75;20465;-39
2020/12/22 07:27:04;;;;;;;;;;;;;;;-8.61;90.58;102671.63;1870074;75;20187;-39
2020/12/22 07:29:31;;;;;;;;;;;;;;;-8.61;90.22;102677.97;1869333;75;20197;-39
2020/12/22 07:31:59;;;;;;;;;;;;;;;-8.61;89.82;102672.89;1867710;75;20176;-39
2020/12/22 07:34:27;;;;;;;;;;;;;;;-8.60;89.50;102675.06;1867943;75;20274;-39
2020/12/22 07:37:09;;;;;;;;;;;;;;;-8.52;89.31;102675.36;1870455;75;20479;-39
2020/12/22 07:39:37;;;;;;;;;;;;;;;-8.41;89.12;102678.89;1866061;75;20284;-50
2020/12/22 07:42:13;;;;;;;;;;;;;;;-8.26;88.95;102673.86;1867495;75;20213;-40
2020/12/22 07:44:41;;;;;;;;;;;;;;;-8.08;88.70;102670.06;1867905;75;20304;-39
2020/12/22 07:47:09;;;;;;;;;;;;;;;-8.01;87.90;102668.96;1869525;75;20185;-39
2020/12/22 07:49:37;;;;;;;;;;;;;;;-7.89;87.43;102666.22;1869698;75;20291;-39
2020/12/22 07:52:07;;;;;;;;;;;;;;;-7.71;86.87;102669.48;1868616;75;20172;-37
2020/12/22 07:54:35;;;;;;;;;;;;;;;-7.61;86.20;102665.70;1868698;75;20158;-37
2020/12/22 07:57:02;;;;;;;;;;;;;;;-7.58;85.69;102666.35;1868295;75;20393;-37
2020/12/22 07:59:31;;;;;;;;;;;;;;;-7.46;85.39;102657.23;1872613;75;20304;-38
2020/12/22 08:01:58;;;;;;;;;;;;;;;-7.32;84.98;102647.85;1868743;75;20439;-42
2020/12/22 08:04:27;;;;;;;;;;;;;;;-7.20;84.63;102655.64;1869042;75;20236;-41
2020/12/22 08:07:06;;;;;;;;;;;;;;;-7.04;84.46;102648.17;1873259;75;20173;-42
2020/12/22 08:09:36;;;;;;;;;;;;;;;-6.82;84.01;102645.76;1869116;75;20207;-42
2020/12/22 08:12:05;;;;;;;;;;;;;;;-6.70;83.39;102642.98;1865806;75;20191;-42
2020/12/22 08:14:35;;;;;;;;;;;;;;;-6.64;82.91;102642.22;1867846;75;20282;-41
2020/12/22 08:17:05;;;;;;;;;;;;;;;-6.67;81.84;102638.12;1870055;75;20330;-43
2020/12/22 08:19:36;;;;;;;;;;;;;;;-6.86;81.09;102633.16;1874871;75;20172;-43
2020/12/22 08:22:06;;;;;;;;;;;;;;;-7.01;80.79;102633.13;1870555;75;20221;-42
2020/12/22 08:24:35;;;;;;;;;;;;;;;-7.09;80.64;102630.34;1833603;75;20411;-42
2020/12/22 08:27:02;;;;;;;;;;;;;;;-7.12;80.69;102632.61;1868696;75;20174;-42
2020/12/22 08:29:30;;;;;;;;;;;;;;;-6.94;80.99;102625.23;1871229;75;20144;-40
2020/12/22 08:32:01;;;;;;;;;;;;;;;-6.72;81.02;102613.91;1879709;75;20305;-40
2020/12/22 08:34:29;;;;;;;;;;;;;;;-6.41;80.99;102617.69;1871441;75;20185;-41
2020/12/22 08:37:10;;;;;;;;;;;;;;;-6.24;80.08;102605.95;1869607;75;20200;-42
2020/12/22 08:39:40;;;;;;;;;;;;;;;-6.33;79.28;102606.08;1879157;75;20195;-42
2020/12/22 08:42:09;;;;;;;;;;;;;;;-6.31;78.94;102607.11;1869162;75;20291;-42
2020/12/22 08:44:37;;;;;;;;;;;;;;;-6.28;78.69;102597.13;1869703;75;20132;-42
2020/12/22 08:47:11;;;;;;;;;;;;;;;-6.25;78.54;102600.33;1872608;75;20178;-42
2020/12/22 08:49:39;;;;;;;;;;;;;;;-6.22;78.35;102597.62;1849389;77;20434;-41
2020/12/22 08:52:17;;;;;;;;;;;;;;;-6.27;77.99;102598.92;1867404;75;20212;-43
2020/12/22 08:54:47;;;;;;;;;;;;;;;-6.43;77.77;102599.70;1872778;75;20279;-42
2020/12/22 08:57:23;;;;;;;;;;;;;;;-6.50;77.96;102587.24;1881262;75;20443;-43
2020/12/22 08:59:51;;;;;;;;;;;;;;;-6.50;77.89;102585.55;1871913;75;20490;-42
2020/12/22 09:02:32;;;;;;;;;;;;;;;-6.52;77.58;102582.01;1871681;75;20191;-42
2020/12/22 09:05:14;;;;;;;;;;;;;;;-6.66;77.44;102574.88;1872618;75;20204;-42
2020/12/22 09:07:42;;;;;;;;;;;;;;;-6.78;77.64;102587.00;1868672;75;20190;-41
2020/12/22 09:10:11;;;;;;;;;;;;;;;-6.90;77.84;102582.69;1867104;75;20201;-42
2020/12/22 09:12:39;;;;;;;;;;;;;;;-6.94;78.18;102577.18;1869918;75;20202;-40
2020/12/22 09:15:08;;;;;;;;;;;;;;;-6.87;78.62;102573.11;1876887;75;20165;-43
2020/12/22 09:17:36;;;;;;;;;;;;;;;-6.82;78.77;102559.45;1873408;75;20519;-42
2020/12/22 09:20:05;;;;;;;;;;;;;;;-6.83;78.91;102561.14;1870037;75;20450;-43
2020/12/22 09:22:34;;;;;;;;;;;;;;;-6.89;78.95;102563.15;1865879;75;20141;-42
2020/12/22 09:25:05;;;;;;;;;;;;;;;-6.89;78.96;102563.15;1867275;75;20175;-41
2020/12/22 09:27:35;;;;;;;;;;;;;;;-6.78;79.04;102565.33;1866701;75;20275;-40
2020/12/22 09:30:04;;;;;;;;;;;;;;;-6.63;79.24;102554.70;1869705;75;20435;-42
2020/12/22 09:32:37;;;;;;;;;;;;;;;-6.39;79.11;102560.04;1868610;75;20166;-42
2020/12/22 09:35:05;;;;;;;;;;;;;;;-6.17;78.94;102549.11;1843093;75;20147;-44
2020/12/22 09:37:35;;;;;;;;;;;;;;;-6.08;78.32;102540.02;1869113;75;20207;-42
2020/12/22 09:40:03;;;;;;;;;;;;;;;-6.11;77.92;102547.08;1866480;75;20384;-42
2020/12/22 09:42:31;;;;;;;;;;;;;;;-6.09;77.85;102542.06;1867918;75;20405;-40
2020/12/22 09:45:01;;;;;;;;;;;;;;;-5.99;77.70;102531.83;1870330;75;20307;-42
2020/12/22 09:47:31;;;;;;;;;;;;;;;-6.03;76.94;102532.34;1815050;75;20162;-41
2020/12/22 09:49:59;;;;;;;;;;;;;;;-6.18;76.63;102528.59;1869083;75;20187;-42
2020/12/22 09:52:27;;;;;;;;;;;;;;;-6.21;76.78;102524.13;1866747;75;20211;-42
2020/12/22 09:54:55;;;;;;;;;;;;;;;-6.18;76.85;102519.28;1866583;75;20185;-41
2020/12/22 09:57:22;;;;;;;;;;;;;;;-6.16;76.76;102517.72;1873451;75;20257;-42
2020/12/22 09:59:52;;;;;;;;;;;;;;;-6.25;76.62;102505.52;1869091;75;20199;-41
2020/12/22 10:02:21;;;;;;;;;;;;;;;-6.37;76.64;102504.93;1869154;75;20182;-41
2020/12/22 10:04:48;;;;;;;;;;;;;;;-6.50;76.80;102496.69;1875506;75;20205;-41
2020/12/22 10:07:16;;;;;;;;;;;;;;;-6.49;77.05;102502.27;1867295;75;20316;-40
2020/12/22 10:09:45;;;;;;;;;;;;;;;-6.42;77.22;102495.61;1867221;75;20292;-41
2020/12/22 10:12:13;;;;;;;;;;;;;;;-6.35;76.92;102482.58;1870093;75;20301;-41
2020/12/22 10:14:42;;;;;;;;;;;;;;;-6.32;76.93;102484.11;1869680;75;20270;-42
2020/12/22 10:17:09;;;;;;;;;;;;;;;-6.19;77.02;102478.31;1868574;75;20542;-41
2020/12/22 10:19:39;;;;;;;;;;;;;;;-6.14;76.64;102474.07;1869537;75;20193;-42
2020/12/22 10:22:07;;;;;;;;;;;;;;;-6.23;76.28;102474.61;1867286;75;20180;-42
2020/12/22 10:26:50;;;;;;;;;;;;;;;-6.24;76.24;102469.03;1889089;74;20251;-41
2020/12/22 10:29:18;;;;;;;;;;;;;;;-6.26;76.27;102468.01;1870602;75;20247;-41
2020/12/22 10:31:53;;;;;;;;;;;;;;;-6.24;76.02;102466.86;1792986;75;20293;-40
2020/12/22 10:34:26;;;;;;;;;;;;;;;-6.26;76.01;102465.45;1839441;75;20180;-42
2020/12/22 10:36:56;;;;;;;;;;;;;;;-6.17;76.07;102466.57;1869721;75;20217;-47
2020/12/22 10:39:24;;;;;;;;;;;;;;;-6.02;75.96;102465.58;1869861;75;20208;-40
2020/12/22 10:41:52;;;;;;;;;;;;;;;-5.92;75.68;102461.70;1870125;75;20288;-41
2020/12/22 10:44:20;;;;;;;;;;;;;;;-5.90;75.35;102459.75;1871939;75;20237;-41
2020/12/22 10:46:47;;;;;;;;;;;;;;;-5.82;75.38;102461.59;1871277;75;20174;-40
2020/12/22 10:49:15;;;;;;;;;;;;;;;-5.72;75.06;102453.89;1873562;75;20154;-42
2020/12/22 10:51:44;;;;;;;;;;;;;;;-5.61;74.86;102454.30;1867235;75;20181;-41
2020/12/22 10:54:13;;;;;;;;;;;;;;;-5.56;74.53;102451.70;1870176;75;20294;-42
2020/12/22 10:56:43;;;;;;;;;;;;;;;-5.44;74.42;102442.79;1870696;75;20166;-41
2020/12/22 10:59:12;;;;;;;;;;;;;;;-5.40;73.88;102441.88;1869203;75;20455;-41
2020/12/22 11:01:40;;;;;;;;;;;;;;;-5.43;73.52;102436.52;1867150;75;20193;-42
2020/12/22 11:04:07;;;;;;;;;;;;;;;-5.38;73.49;102439.03;1870649;75;20454;-41
2020/12/22 11:06:53;;;;;;;;;;;;;;;-5.28;73.26;102432.95;1870553;75;20131;-43
2020/12/22 11:09:17;;;;;;;;;;;;;;;-5.20;72.85;102434.42;1867631;75;20201;-41
2020/12/22 11:11:47;;;;;;;;;;;;;;;-5.26;72.36;102428.47;1870672;75;20573;-41
2020/12/22 11:14:16;;;;;;;;;;;;;;;-5.26;72.46;102432.69;1867088;75;20545;-43
2020/12/22 11:16:47;;;;;;;;;;;;;;;-5.14;72.49;102425.92;1869990;75;20213;-41
2020/12/22 11:19:15;;;;;;;;;;;;;;;-5.08;72.16;102422.92;1867805;75;20222;-50
2020/12/22 11:21:46;;;;;;;;;;;;;;;-5.05;71.93;102418.02;1870493;75;20195;-40
2020/12/22 11:24:17;;;;;;;;;;;;;;;-5.13;71.53;102425.54;1858042;75;20539;-42
2020/12/22 11:26:45;;;;;;;;;;;;;;;-5.16;71.62;102424.91;1869549;75;20500;-42
2020/12/22 11:29:13;;;;;;;;;;;;;;;-5.13;71.39;102407.26;1870903;75;20124;-42
2020/12/22 11:31:41;;;;;;;;;;;;;;;-5.20;71.27;102408.86;1871177;75;20253;-44
2020/12/22 11:34:11;;;;;;;;;;;;;;;-5.23;71.24;102420.13;1827874;75;20178;-42
2020/12/22 11:36:38;;;;;;;;;;;;;;;-5.24;71.21;102425.62;1870844;75;20203;-41
2020/12/22 11:39:07;;;;;;;;;;;;;;;-5.26;71.17;102425.91;1869174;75;20514;-43
2020/12/22 11:41:34;;;;;;;;;;;;;;;-5.22;71.36;102415.12;1871229;75;20283;-43
2020/12/22 11:44:02;;;;;;;;;;;;;;;-5.10;71.39;102418.08;1867170;75;20184;-42
2020/12/22 11:46:30;;;;;;;;;;;;;;;-5.00;71.20;102429.50;1872220;75;20456;-43
2020/12/22 11:48:57;;;;;;;;;;;;;;;-5.05;70.81;102421.86;1869454;75;20166;-43
2020/12/22 11:51:25;;;;;;;;;;;;;;;-5.17;70.56;102420.57;1837370;75;20181;-43
2020/12/22 11:53:53;;;;;;;;;;;;;;;-5.34;70.50;102418.06;1866349;75;20178;-43
2020/12/22 11:56:21;;;;;;;;;;;;;;;-5.45;70.61;102420.59;1866785;75;20265;-41
2020/12/22 11:58:51;;;;;;;;;;;;;;;-5.51;70.95;102415.89;1826707;76;20293;-43
2020/12/22 12:01:27;;;;;;;;;;;;;;;-5.41;71.36;102413.27;1868578;75;20236;-43
2020/12/22 12:03:55;;;;;;;;;;;;;;;-5.27;71.35;102415.19;1868045;75;20174;-43
2020/12/22 12:06:23;;;;;;;;;;;;;;;-5.19;71.10;102416.14;1870064;75;20197;-42
2020/12/22 12:08:51;;;;;;;;;;;;;;;-5.26;70.58;102415.69;1873310;75;20214;-42
2020/12/22 12:11:22;;;;;;;;;;;;;;;-5.48;70.10;102414.86;1866231;75;20257;-40
2020/12/22 12:13:51;;;;;;;;;;;;;;;-5.73;70.24;102420.17;1837604;75;20215;-40
2020/12/22 12:16:19;;;;;;;;;;;;;;;-5.91;70.41;102408.59;1871039;75;20277;-39
2020/12/22 12:18:47;;;;;;;;;;;;;;;-6.09;70.64;102410.60;1867210;75;20172;-39
2020/12/22 12:21:16;;;;;;;;;;;;;;;-6.24;70.91;102417.09;1866525;75;20182;-39
2020/12/22 12:23:45;;;;;;;;;;;;;;;-6.40;71.21;102412.83;1868878;75;20201;-39
2020/12/22 12:26:13;;;;;;;;;;;;;;;-6.52;71.59;102413.66;1868323;75;20166;-39
2020/12/22 12:28:42;;;;;;;;;;;;;;;-6.60;72.02;102409.98;1867868;75;20455;-38
2020/12/22 12:31:12;;;;;;;;;;;;;;;-6.68;72.29;102414.84;1868747;75;20242;-38
2020/12/22 12:33:41;;;;;;;;;;;;;;;-6.80;72.54;102412.59;1867990;75;20194;-38
2020/12/22 12:36:13;;;;;;;;;;;;;;;-6.91;72.81;102413.03;1868023;75;20449;-38
2020/12/22 12:38:41;;;;;;;;;;;;;;;-7.02;73.17;102414.69;1869321;75;20183;-39
2020/12/22 12:41:11;;;;;;;;;;;;;;;-7.07;73.54;102420.19;1868852;75;20480;-41
2020/12/22 12:43:39;;;;;;;;;;;;;;;-7.12;73.85;102417.66;1851597;75;20504;-39
2020/12/22 12:46:09;;;;;;;;;;;;;;;-7.19;74.04;102417.92;1868191;75;20184;-40
2020/12/22 12:48:40;;;;;;;;;;;;;;;-7.28;74.19;102418.05;1869266;75;20154;-39
2020/12/22 12:51:09;;;;;;;;;;;;;;;-7.35;74.34;102417.07;1867620;75;20118;-39
2020/12/22 12:53:56;;;;;;;;;;;;;;;-7.44;74.49;102417.19;1801173;75;20376;-40